createdAt,value
2023-01-12T00:01:19.744Z,100.00
2023-01-12T00:02:52.773Z,100.00
2023-01-12T00:04:25.798Z,100.00
2023-01-12T00:06:01.335Z,100.00
2023-01-12T00:07:34.244Z,100.00
2023-01-12T00:09:07.958Z,100.00
2023-01-12T00:10:40.732Z,100.00
2023-01-12T00:12:13.725Z,100.00
2023-01-12T00:13:46.641Z,100.00
2023-01-12T00:15:40.134Z,100.00
2023-01-12T00:17:17.028Z,100.00
2023-01-12T00:18:50.534Z,100.00
2023-01-12T00:20:23.596Z,100.00
2023-01-12T00:21:59.849Z,100.00
2023-01-12T00:23:32.684Z,100.00
2023-01-12T00:25:06.038Z,100.00
2023-01-12T00:26:38.997Z,100.00
2023-01-12T00:28:12.960Z,100.00
2023-01-12T00:29:46.228Z,100.00
2023-01-12T00:31:19.183Z,100.00
2023-01-12T00:32:52.235Z,100.00
2023-01-12T00:34:27.957Z,100.00
2023-01-12T00:36:12.927Z,100.00
2023-01-12T00:37:45.653Z,100.00
2023-01-12T00:39:19.241Z,100.00
2023-01-12T00:40:52.261Z,100.00
2023-01-12T00:42:43.657Z,100.00
2023-01-12T00:44:35.375Z,100.00
2023-01-12T00:46:10.119Z,100.00
2023-01-12T00:47:43.581Z,100.00
2023-01-12T00:49:16.665Z,100.00
2023-01-12T00:50:49.557Z,100.00
2023-01-12T00:52:30.715Z,100.00
2023-01-12T00:54:04.989Z,100.00
2023-01-12T00:55:37.905Z,100.00
2023-01-12T00:57:13.885Z,100.00
2023-01-12T00:58:47.743Z,100.00
2023-01-12T01:00:20.769Z,100.00
2023-01-12T01:01:53.591Z,100.00
2023-01-12T01:03:26.347Z,100.00
2023-01-12T01:04:59.347Z,100.00
2023-01-12T01:06:32.456Z,100.00
2023-01-12T01:08:05.537Z,100.00
2023-01-12T01:09:38.329Z,100.00
2023-01-12T01:11:13.260Z,100.00
2023-01-12T01:12:46.322Z,100.00
2023-01-12T01:14:19.310Z,100.00
2023-01-12T01:15:52.133Z,100.00
2023-01-12T01:17:25.483Z,100.00
2023-01-12T01:18:59.665Z,100.00
2023-01-12T01:20:36.703Z,100.00
2023-01-12T01:22:09.597Z,100.00
2023-01-12T01:23:43.393Z,100.00
2023-01-12T01:25:16.477Z,100.00
2023-01-12T01:26:50.783Z,100.00
2023-01-12T01:28:23.770Z,100.00
2023-01-12T01:29:56.753Z,100.00
2023-01-12T01:31:29.704Z,100.00
2023-01-12T01:33:02.566Z,100.00
2023-01-12T01:34:36.638Z,100.00
2023-01-12T01:36:10.543Z,100.00
2023-01-12T01:37:43.520Z,100.00
2023-01-12T01:39:16.427Z,100.00
2023-01-12T01:40:49.400Z,100.00
2023-01-12T01:42:30.495Z,100.00
2023-01-12T01:44:27.274Z,100.00
2023-01-12T01:46:09.995Z,100.00
2023-01-12T01:48:11.034Z,100.00
2023-01-12T01:49:48.153Z,100.00
2023-01-12T01:51:22.080Z,100.00
2023-01-12T01:53:04.275Z,100.00
2023-01-12T01:54:43.857Z,100.00
2023-01-12T01:56:26.211Z,100.00
2023-01-12T01:58:03.462Z,100.00
2023-01-12T01:59:41.225Z,100.00
2023-01-12T02:01:14.543Z,100.00
2023-01-12T02:02:48.254Z,100.00
2023-01-12T02:04:21.750Z,100.00
2023-01-12T02:05:57.265Z,100.00
2023-01-12T02:07:30.244Z,100.00
2023-01-12T02:09:14.973Z,100.00
2023-01-12T02:10:48.033Z,100.00
2023-01-12T02:12:39.506Z,100.00
2023-01-12T02:14:31.682Z,100.00
2023-01-12T02:16:31.654Z,100.00
2023-01-12T02:18:33.356Z,100.00
2023-01-12T02:20:36.594Z,100.00
2023-01-12T02:22:23.511Z,100.00
2023-01-12T02:24:38.080Z,100.00
2023-01-12T02:26:22.823Z,100.00
2023-01-12T02:27:55.578Z,100.00
2023-01-12T02:30:32.880Z,100.00
2023-01-12T02:32:20.153Z,100.00
2023-01-12T02:34:04.351Z,100.00
2023-01-12T02:35:45.845Z,100.00
2023-01-12T02:37:33.390Z,100.00
2023-01-12T02:39:19.554Z,100.00
2023-01-12T02:41:40.928Z,100.00
2023-01-12T02:43:18.971Z,100.00
2023-01-12T02:44:55.012Z,100.00
2023-01-12T02:46:32.363Z,100.00
2023-01-12T02:48:35.216Z,100.00
2023-01-12T02:50:10.266Z,100.00
2023-01-12T02:51:54.747Z,100.00
2023-01-12T02:54:05.208Z,100.00
2023-01-12T02:55:39.725Z,100.00
2023-01-12T02:57:13.597Z,100.00
2023-01-12T02:58:53.076Z,100.00
2023-01-12T03:00:27.349Z,100.00
2023-01-12T03:02:04.586Z,100.00
2023-01-12T03:03:39.992Z,100.00
2023-01-12T03:05:12.982Z,100.00
2023-01-12T03:07:06.783Z,100.00
2023-01-12T03:08:40.480Z,100.00
2023-01-12T03:10:28.113Z,100.00
2023-01-12T03:12:07.169Z,100.00
2023-01-12T03:14:02.248Z,100.00
2023-01-12T03:15:39.348Z,100.00
2023-01-12T03:17:33.167Z,100.00
2023-01-12T03:19:11.353Z,100.00
2023-01-12T03:21:08.210Z,100.00
2023-01-12T03:22:42.381Z,100.00
2023-01-12T03:24:19.630Z,100.00
2023-01-12T03:25:56.387Z,100.00
2023-01-12T03:27:38.250Z,100.00
2023-01-12T03:29:28.269Z,100.00
2023-01-12T03:31:11.286Z,100.00
2023-01-12T03:32:44.551Z,100.00
2023-01-12T03:34:17.629Z,100.00
2023-01-12T03:36:15.691Z,100.00
2023-01-12T03:37:59.140Z,100.00
2023-01-12T03:39:45.029Z,100.00
2023-01-12T03:41:35.344Z,100.00
2023-01-12T03:43:14.614Z,100.00
2023-01-12T03:45:11.250Z,100.00
2023-01-12T03:46:53.918Z,100.00
2023-01-12T03:48:36.375Z,100.00
2023-01-12T03:50:21.208Z,100.00
2023-01-12T03:51:57.960Z,100.00
2023-01-12T03:53:32.866Z,100.00
2023-01-12T03:55:09.541Z,100.00
2023-01-12T03:56:45.242Z,100.00
2023-01-12T03:58:19.275Z,100.00
2023-01-12T03:59:54.109Z,100.00
2023-01-12T04:01:27.350Z,100.00
2023-01-12T04:03:18.784Z,100.00
2023-01-12T04:04:52.125Z,100.00
2023-01-12T04:06:25.136Z,100.00
2023-01-12T04:07:58.092Z,100.00
2023-01-12T04:09:31.264Z,100.00
2023-01-12T04:11:24.145Z,100.00
2023-01-12T04:12:57.270Z,100.00
2023-01-12T04:14:30.177Z,100.00
2023-01-12T04:16:02.967Z,100.00
2023-01-12T04:17:35.965Z,100.00
2023-01-12T04:19:09.083Z,100.00
2023-01-12T04:20:42.753Z,100.00
2023-01-12T04:22:35.458Z,100.00
2023-01-12T04:24:08.237Z,100.00
2023-01-12T04:25:41.419Z,100.00
2023-01-12T04:27:15.341Z,100.00
2023-01-12T04:28:48.276Z,100.00
2023-01-12T04:30:24.890Z,100.00
2023-01-12T04:31:58.153Z,100.00
2023-01-12T04:33:30.918Z,100.00
2023-01-12T04:35:04.867Z,100.00
2023-01-12T04:36:37.871Z,100.00
2023-01-12T04:38:10.931Z,100.00
2023-01-12T04:39:43.754Z,100.00
2023-01-12T04:41:16.609Z,100.00
2023-01-12T04:43:10.352Z,100.00
2023-01-12T04:44:43.382Z,100.00
2023-01-12T04:46:16.344Z,100.00
2023-01-12T04:47:49.237Z,100.00
2023-01-12T04:49:22.209Z,100.00
2023-01-12T04:50:55.321Z,100.00
2023-01-12T04:52:28.385Z,100.00
2023-01-12T04:54:01.101Z,100.00
2023-01-12T04:55:36.923Z,100.00
2023-01-12T04:57:09.927Z,100.00
2023-01-12T04:58:42.804Z,100.00
2023-01-12T05:00:16.001Z,100.00
2023-01-12T05:01:48.927Z,100.00
2023-01-12T05:03:21.948Z,100.00
2023-01-12T05:04:54.817Z,100.00
2023-01-12T05:06:28.534Z,100.00
2023-01-12T05:08:21.082Z,100.00
2023-01-12T05:10:12.253Z,100.00
2023-01-12T05:11:45.477Z,100.00
2023-01-12T05:13:18.500Z,100.00
2023-01-12T05:14:51.596Z,100.00
2023-01-12T05:16:25.662Z,100.00
2023-01-12T05:17:58.503Z,100.00
2023-01-12T05:19:31.348Z,100.00
2023-01-12T05:21:05.868Z,100.00
2023-01-12T05:22:38.877Z,100.00
2023-01-12T05:24:11.793Z,100.00
2023-01-12T05:25:44.679Z,100.00
2023-01-12T05:27:18.553Z,100.00
2023-01-12T05:28:51.913Z,100.00
2023-01-12T05:30:25.591Z,100.00
2023-01-12T05:31:58.415Z,100.00
2023-01-12T05:33:32.329Z,100.00
2023-01-12T05:35:09.143Z,100.00
2023-01-12T05:36:41.999Z,100.00
2023-01-12T05:38:14.862Z,100.00
2023-01-12T05:39:47.878Z,100.00
2023-01-12T05:41:23.229Z,100.00
2023-01-12T05:43:14.625Z,100.00
2023-01-12T05:44:47.416Z,100.00
2023-01-12T05:46:29.320Z,100.00
2023-01-12T05:48:02.553Z,100.00
2023-01-12T05:49:35.464Z,100.00
2023-01-12T05:51:10.144Z,100.00
2023-01-12T05:52:43.484Z,100.00
2023-01-12T05:54:16.555Z,100.00
2023-01-12T05:55:49.741Z,100.00
2023-01-12T05:57:22.829Z,100.00
2023-01-12T05:58:59.069Z,100.00
2023-01-12T06:00:32.200Z,100.00
2023-01-12T06:02:05.081Z,100.00
2023-01-12T06:03:38.332Z,100.00
2023-01-12T06:05:11.486Z,100.00
2023-01-12T06:06:45.756Z,100.00
2023-01-12T06:08:18.704Z,100.00
2023-01-12T06:09:51.614Z,100.00
2023-01-12T06:11:43.712Z,100.00
2023-01-12T06:13:34.975Z,100.00
2023-01-12T06:15:08.129Z,100.00
2023-01-12T06:16:42.937Z,100.00
2023-01-12T06:18:16.712Z,100.00
2023-01-12T06:19:49.647Z,100.00
2023-01-12T06:21:23.414Z,100.00
2023-01-12T06:22:56.320Z,100.00
2023-01-12T06:24:29.260Z,100.00
2023-01-12T06:26:09.029Z,100.00
2023-01-12T06:27:43.314Z,100.00
2023-01-12T06:29:16.215Z,100.00
2023-01-12T06:31:00.048Z,100.00
2023-01-12T06:32:33.708Z,100.00
2023-01-12T06:34:08.250Z,100.00
2023-01-12T06:35:47.860Z,100.00
2023-01-12T06:37:20.944Z,100.00
2023-01-12T06:38:53.912Z,100.00
2023-01-12T06:40:26.827Z,100.00
2023-01-12T06:42:18.091Z,100.00
2023-01-12T06:43:51.235Z,100.00
2023-01-12T06:45:24.377Z,100.00
2023-01-12T06:46:57.237Z,100.00
2023-01-12T06:48:38.775Z,100.00
2023-01-12T06:50:13.646Z,100.00
2023-01-12T06:51:49.375Z,100.00
2023-01-12T06:53:22.419Z,100.00
2023-01-12T06:54:55.493Z,100.00
2023-01-12T06:56:28.725Z,100.00
2023-01-12T06:58:05.139Z,100.00
2023-01-12T06:59:39.048Z,100.00
2023-01-12T07:01:13.934Z,100.00
2023-01-12T07:02:50.943Z,100.00
2023-01-12T07:04:24.045Z,100.00
2023-01-12T07:06:00.974Z,100.00
2023-01-12T07:07:34.143Z,100.00
2023-01-12T07:09:07.271Z,100.00
2023-01-12T07:10:40.299Z,100.00
2023-01-12T07:12:13.088Z,100.00
2023-01-12T07:13:45.968Z,100.00
2023-01-12T07:15:18.967Z,100.00
2023-01-12T07:16:52.068Z,100.00
2023-01-12T07:18:25.242Z,100.00
2023-01-12T07:19:58.376Z,100.00
2023-01-12T07:21:31.460Z,100.00
2023-01-12T07:23:04.431Z,100.00
2023-01-12T07:24:37.240Z,100.00
2023-01-12T07:26:14.119Z,100.00
2023-01-12T07:27:55.802Z,100.00
2023-01-12T07:29:28.965Z,100.00
2023-01-12T07:31:02.988Z,100.00
2023-01-12T07:32:35.959Z,100.00
2023-01-12T07:34:09.039Z,100.00
2023-01-12T07:35:42.938Z,100.00
2023-01-12T07:37:15.908Z,100.00
2023-01-12T07:38:48.925Z,100.00
2023-01-12T07:40:22.035Z,100.00
2023-01-12T07:42:13.495Z,100.00
2023-01-12T07:43:46.517Z,100.00
2023-01-12T07:45:19.514Z,100.00
2023-01-12T07:46:52.633Z,100.00
2023-01-12T07:48:27.750Z,100.00
2023-01-12T07:50:00.953Z,100.00
2023-01-12T07:51:33.904Z,100.00
2023-01-12T07:53:07.020Z,100.00
2023-01-12T07:54:40.358Z,100.00
2023-01-12T07:56:16.269Z,100.00
2023-01-12T07:58:09.684Z,100.00
2023-01-12T07:59:42.873Z,100.00
2023-01-12T08:01:16.483Z,100.00
2023-01-12T08:02:51.993Z,100.00
2023-01-12T08:04:25.100Z,100.00
2023-01-12T08:05:58.323Z,100.00
2023-01-12T08:07:32.784Z,100.00
2023-01-12T08:09:06.131Z,100.00
2023-01-12T08:10:39.657Z,100.00
2023-01-12T08:12:12.723Z,100.00
2023-01-12T08:13:45.642Z,100.00
2023-01-12T08:15:19.265Z,100.00
2023-01-12T08:16:53.705Z,100.00
2023-01-12T08:18:34.414Z,100.00
2023-01-12T08:20:19.151Z,100.00
2023-01-12T08:21:59.234Z,100.00
2023-01-12T08:23:41.769Z,100.00
2023-01-12T08:25:20.511Z,100.00
2023-01-12T08:26:56.500Z,100.00
2023-01-12T08:28:35.195Z,100.00
2023-01-12T08:30:09.407Z,100.00
2023-01-12T08:31:43.067Z,100.00
2023-01-12T08:33:16.781Z,100.00
2023-01-12T08:34:54.021Z,100.00
2023-01-12T08:36:30.844Z,100.00
2023-01-12T08:38:03.915Z,100.00
2023-01-12T08:39:37.593Z,100.00
2023-01-12T08:41:29.673Z,100.00
2023-01-12T08:43:02.733Z,100.00
2023-01-12T08:44:36.583Z,100.00
2023-01-12T08:46:09.479Z,100.00
2023-01-12T08:47:44.776Z,100.00
2023-01-12T08:49:20.203Z,100.00
2023-01-12T08:50:54.341Z,100.00
2023-01-12T08:52:33.118Z,100.00
2023-01-12T08:54:08.431Z,100.00
2023-01-12T08:55:41.501Z,100.00
2023-01-12T08:57:16.458Z,100.00
2023-01-12T08:58:49.452Z,100.00
2023-01-12T09:00:23.071Z,100.00
2023-01-12T09:01:56.920Z,100.00
2023-01-12T09:03:30.014Z,100.00
2023-01-12T09:05:02.880Z,100.00
2023-01-12T09:06:38.400Z,100.00
2023-01-12T09:08:11.618Z,100.00
2023-01-12T09:09:44.773Z,100.00
2023-01-12T09:11:18.385Z,100.00
2023-01-12T09:12:51.511Z,100.00
2023-01-12T09:14:25.960Z,100.00
2023-01-12T09:16:12.207Z,100.00
2023-01-12T09:17:46.022Z,99.08
2023-01-12T09:19:19.139Z,98.22
2023-01-12T09:20:52.207Z,97.61
2023-01-12T09:22:26.495Z,96.96
2023-01-12T09:23:59.973Z,96.81
2023-01-12T09:25:35.502Z,95.55
2023-01-12T09:27:11.126Z,95.07
2023-01-12T09:28:45.365Z,94.90
2023-01-12T09:30:18.794Z,94.10
2023-01-12T09:31:52.336Z,92.97
2023-01-12T09:33:25.516Z,92.81
2023-01-12T09:35:00.065Z,92.24
2023-01-12T09:36:38.853Z,91.92
2023-01-12T09:38:12.549Z,92.52
2023-01-12T09:39:45.776Z,92.40
2023-01-12T09:41:50.595Z,92.41
2023-01-12T09:43:42.048Z,92.01
2023-01-12T09:45:40.110Z,92.37
2023-01-12T09:47:22.529Z,92.73
2023-01-12T09:48:55.576Z,92.70
2023-01-12T09:50:42.736Z,92.80
2023-01-12T09:52:15.654Z,92.59
2023-01-12T09:53:48.567Z,93.60
2023-01-12T09:55:24.565Z,92.48
2023-01-12T09:57:34.492Z,92.56
2023-01-12T09:59:23.421Z,91.84
2023-01-12T10:00:59.669Z,92.29
2023-01-12T10:02:39.386Z,90.74
2023-01-12T10:04:13.894Z,91.69
2023-01-12T10:05:52.542Z,91.79
2023-01-12T10:07:25.708Z,92.15
2023-01-12T10:09:10.336Z,94.12
2023-01-12T10:10:58.348Z,93.12
2023-01-12T10:12:36.452Z,94.45
2023-01-12T10:14:31.216Z,93.72
2023-01-12T10:16:10.739Z,93.59
2023-01-12T10:18:02.066Z,93.77
2023-01-12T10:19:50.617Z,93.99
2023-01-12T10:21:24.118Z,94.13
2023-01-12T10:23:08.352Z,93.84
2023-01-12T10:24:42.543Z,94.06
2023-01-12T10:26:29.488Z,95.66
2023-01-12T10:28:18.590Z,95.73
2023-01-12T10:29:52.910Z,96.09
2023-01-12T10:31:26.749Z,94.60
2023-01-12T10:33:14.898Z,95.59
2023-01-12T10:34:51.105Z,96.84
2023-01-12T10:36:25.625Z,95.65
2023-01-12T10:37:58.734Z,97.14
2023-01-12T10:39:34.561Z,97.33
2023-01-12T10:41:17.527Z,97.94
2023-01-12T10:43:20.657Z,98.53
2023-01-12T10:45:16.556Z,99.44
2023-01-12T10:47:17.921Z,99.90
2023-01-12T10:48:54.330Z,100.00
2023-01-12T10:50:36.554Z,100.00
2023-01-12T10:52:32.406Z,99.59
2023-01-12T10:54:20.615Z,98.87
2023-01-12T10:55:54.911Z,99.30
2023-01-12T10:57:28.226Z,99.25
2023-01-12T10:59:13.132Z,99.12
2023-01-12T11:00:52.540Z,99.00
2023-01-12T11:02:29.250Z,99.42
2023-01-12T11:04:06.447Z,100.00
2023-01-12T11:05:39.627Z,100.00
2023-01-12T11:07:16.923Z,100.00
2023-01-12T11:08:49.882Z,100.00
2023-01-12T11:10:36.274Z,100.00
2023-01-12T11:12:22.603Z,100.00
2023-01-12T11:14:00.862Z,100.00
2023-01-12T11:15:39.284Z,100.00
2023-01-12T11:17:34.197Z,100.00
2023-01-12T11:19:26.906Z,99.38
2023-01-12T11:21:10.907Z,99.89
2023-01-12T11:22:46.947Z,99.84
2023-01-12T11:24:35.248Z,100.00
2023-01-12T11:26:19.985Z,100.00
2023-01-12T11:28:03.541Z,99.91
2023-01-12T11:29:54.724Z,100.00
2023-01-12T11:31:41.077Z,100.00
2023-01-12T11:33:22.085Z,100.00
2023-01-12T11:35:06.294Z,100.00
2023-01-12T11:36:44.081Z,100.00
2023-01-12T11:38:26.888Z,100.00
2023-01-12T11:40:28.957Z,100.00
2023-01-12T11:42:22.359Z,100.00
2023-01-12T11:43:58.471Z,100.00
2023-01-12T11:45:47.575Z,100.00
2023-01-12T11:47:24.903Z,100.00
2023-01-12T11:49:12.048Z,100.00
2023-01-12T11:50:48.832Z,100.00
2023-01-12T11:52:22.157Z,100.00
2023-01-12T11:53:55.700Z,100.00
2023-01-12T11:55:54.540Z,100.00
2023-01-12T11:57:45.689Z,100.00
2023-01-12T11:59:23.744Z,100.00
2023-01-12T12:01:13.896Z,100.00
2023-01-12T12:03:25.891Z,100.00
2023-01-12T12:05:22.105Z,100.00
2023-01-12T12:07:14.298Z,100.00
2023-01-12T12:09:13.030Z,100.00
2023-01-12T12:10:59.664Z,100.00
2023-01-12T12:12:56.007Z,100.00
2023-01-12T12:14:57.394Z,100.00
2023-01-12T12:17:00.782Z,100.00
2023-01-12T12:19:07.599Z,100.00
2023-01-12T12:21:02.210Z,100.00
2023-01-12T12:23:04.940Z,100.00
2023-01-12T12:24:58.863Z,100.00
2023-01-12T12:26:36.507Z,100.00
2023-01-12T12:28:54.542Z,100.00
2023-01-12T12:30:46.558Z,100.00
2023-01-12T12:32:22.775Z,100.00
2023-01-12T12:34:08.475Z,100.00
2023-01-12T12:35:53.324Z,100.00
2023-01-12T12:37:35.135Z,100.00
2023-01-12T12:39:13.677Z,100.00
2023-01-12T12:41:29.404Z,100.00
2023-01-12T12:43:40.560Z,100.00
2023-01-12T12:45:42.386Z,100.00
2023-01-12T12:47:52.058Z,100.00
2023-01-12T12:49:30.621Z,100.00
2023-01-12T12:51:08.749Z,100.00
2023-01-12T12:52:42.014Z,100.00
2023-01-12T12:54:21.885Z,100.00
2023-01-12T12:55:59.078Z,100.00
2023-01-12T12:57:32.086Z,100.00
2023-01-12T12:59:05.287Z,100.00
2023-01-12T13:00:46.992Z,100.00
2023-01-12T13:02:55.953Z,100.00
2023-01-12T13:04:49.011Z,100.00
2023-01-12T13:06:30.313Z,100.00
2023-01-12T13:08:03.270Z,100.00
2023-01-12T13:09:38.459Z,100.00
2023-01-12T13:11:11.225Z,100.00
2023-01-12T13:12:45.129Z,100.00
2023-01-12T13:14:28.519Z,100.00
2023-01-12T13:16:27.651Z,100.00
2023-01-12T13:18:00.725Z,100.00
2023-01-12T13:19:47.705Z,100.00
2023-01-12T13:21:43.639Z,100.00
2023-01-12T13:23:46.257Z,100.00
2023-01-12T13:25:29.828Z,100.00
2023-01-12T13:27:02.872Z,100.00
2023-01-12T13:28:35.678Z,100.00
2023-01-12T13:30:22.979Z,100.00
2023-01-12T13:31:59.636Z,100.00
2023-01-12T13:33:32.773Z,100.00
2023-01-12T13:35:26.027Z,100.00
2023-01-12T13:37:20.129Z,100.00
2023-01-12T13:39:02.952Z,100.00
2023-01-12T13:40:38.437Z,100.00
2023-01-12T13:42:39.263Z,100.00
2023-01-12T13:44:38.660Z,100.00
2023-01-12T13:46:16.940Z,100.00
2023-01-12T13:47:53.268Z,100.00
2023-01-12T13:49:36.191Z,100.00
2023-01-12T13:51:33.356Z,100.00
2023-01-12T13:53:21.803Z,100.00
2023-01-12T13:54:54.671Z,100.00
2023-01-12T13:56:28.491Z,100.00
2023-01-12T13:58:03.283Z,100.00
2023-01-12T13:59:37.047Z,100.00
2023-01-12T14:01:42.951Z,100.00
2023-01-12T14:03:29.436Z,100.00
2023-01-12T14:05:08.409Z,100.00
2023-01-12T14:06:51.909Z,100.00
2023-01-12T14:08:34.409Z,100.00
2023-01-12T14:10:19.297Z,100.00
2023-01-12T14:12:23.937Z,100.00
2023-01-12T14:14:56.388Z,100.00
2023-01-12T14:17:05.336Z,100.00
2023-01-12T14:18:43.171Z,100.00
2023-01-12T14:20:19.624Z,100.00
2023-01-12T14:21:58.508Z,100.00
2023-01-12T14:23:35.486Z,100.00
2023-01-12T14:25:17.683Z,100.00
2023-01-12T14:26:50.661Z,100.00
2023-01-12T14:28:24.169Z,100.00
2023-01-12T14:29:57.150Z,100.00
2023-01-12T14:31:48.895Z,100.00
2023-01-12T14:33:29.274Z,100.00
2023-01-12T14:35:02.141Z,100.00
2023-01-12T14:36:42.238Z,100.00
2023-01-12T14:38:18.930Z,100.00
2023-01-12T14:39:52.219Z,100.00
2023-01-12T14:41:48.220Z,100.00
2023-01-12T14:43:39.705Z,100.00
2023-01-12T14:45:37.301Z,100.00
2023-01-12T14:47:23.002Z,100.00
2023-01-12T14:49:05.351Z,100.00
2023-01-12T14:50:38.507Z,100.00
2023-01-12T14:52:16.697Z,100.00
2023-01-12T14:53:57.345Z,100.00
2023-01-12T14:55:40.245Z,100.00
2023-01-12T14:57:36.634Z,100.00
2023-01-12T14:59:20.501Z,100.00
2023-01-12T15:00:53.821Z,100.00
2023-01-12T15:02:39.379Z,100.00
2023-01-12T15:04:19.969Z,100.00
2023-01-12T15:05:55.561Z,100.00
2023-01-12T15:07:52.726Z,100.00
2023-01-12T15:09:34.533Z,100.00
2023-01-12T15:11:09.756Z,100.00
2023-01-12T15:12:44.472Z,100.00
2023-01-12T15:14:25.276Z,100.00
2023-01-12T15:16:16.812Z,100.00
2023-01-12T15:18:10.830Z,100.00
2023-01-12T15:20:02.352Z,100.00
2023-01-12T15:21:56.373Z,100.00
2023-01-12T15:23:54.102Z,100.00
2023-01-12T15:25:39.414Z,100.00
2023-01-12T15:27:15.237Z,100.00
2023-01-12T15:28:49.003Z,100.00
2023-01-12T15:30:21.852Z,100.00
2023-01-12T15:31:55.052Z,100.00
2023-01-12T15:33:28.427Z,100.00
2023-01-12T15:35:02.230Z,100.00
2023-01-12T15:36:35.419Z,100.00
2023-01-12T15:38:18.600Z,100.00
2023-01-12T15:39:51.673Z,100.00
2023-01-12T15:41:46.746Z,100.00
2023-01-12T15:43:19.807Z,100.00
2023-01-12T15:44:54.441Z,100.00
2023-01-12T15:46:27.512Z,100.00
2023-01-12T15:48:02.393Z,100.00
2023-01-12T15:49:35.501Z,100.00
2023-01-12T15:51:14.522Z,100.00
2023-01-12T15:52:49.104Z,100.00
2023-01-12T15:54:22.472Z,100.00
2023-01-12T15:55:55.437Z,100.00
2023-01-12T15:57:29.232Z,100.00
2023-01-12T15:59:02.492Z,100.00
2023-01-12T16:00:36.361Z,100.00
2023-01-12T16:02:27.821Z,100.00
2023-01-12T16:04:39.904Z,100.00
2023-01-12T16:05:56.901Z,100.00
2023-01-12T16:07:30.159Z,100.00
2023-01-12T16:09:06.091Z,100.00
2023-01-12T16:10:58.993Z,100.00
2023-01-12T16:12:32.442Z,100.00
2023-01-12T16:14:05.562Z,100.00
2023-01-12T16:15:39.939Z,100.00
2023-01-12T16:17:13.420Z,100.00
2023-01-12T16:18:46.823Z,100.00
2023-01-12T16:20:21.054Z,100.00
2023-01-12T16:21:56.106Z,100.00
2023-01-12T16:23:29.827Z,100.00
2023-01-12T16:25:03.484Z,100.00
2023-01-12T16:26:36.905Z,100.00
2023-01-12T16:28:11.142Z,100.00
2023-01-12T16:29:45.058Z,100.00
2023-01-12T16:31:19.303Z,100.00
2023-01-12T16:32:52.831Z,100.00
2023-01-12T16:34:26.168Z,100.00
2023-01-12T16:36:02.419Z,100.00
2023-01-12T16:37:40.436Z,100.00
2023-01-12T16:39:16.458Z,100.00
2023-01-12T16:40:52.113Z,100.00
2023-01-12T16:42:32.213Z,100.00
2023-01-12T16:44:07.136Z,100.00
2023-01-12T16:45:49.705Z,100.00
2023-01-12T16:47:25.867Z,100.00
2023-01-12T16:49:02.050Z,100.00
2023-01-12T16:50:35.620Z,100.00
2023-01-12T16:52:11.833Z,100.00
2023-01-12T16:53:46.843Z,100.00
2023-01-12T16:55:20.417Z,100.00
2023-01-12T16:56:55.602Z,100.00
2023-01-12T16:58:29.778Z,100.00
2023-01-12T17:00:04.929Z,100.00
2023-01-12T17:01:38.296Z,100.00
2023-01-12T17:03:14.496Z,100.00
2023-01-12T17:04:49.353Z,100.00
2023-01-12T17:06:22.537Z,100.00
2023-01-12T17:07:56.615Z,100.00
2023-01-12T17:09:34.570Z,100.00
2023-01-12T17:11:14.202Z,100.00
2023-01-12T17:12:55.001Z,100.00
2023-01-12T17:14:33.920Z,100.00
2023-01-12T17:16:09.236Z,100.00
2023-01-12T17:17:42.433Z,100.00
2023-01-12T17:19:16.627Z,100.00
2023-01-12T17:20:50.130Z,100.00
2023-01-12T17:22:24.179Z,100.00
2023-01-12T17:23:58.022Z,100.00
2023-01-12T17:25:30.890Z,100.00
2023-01-12T17:27:04.776Z,100.00
2023-01-12T17:28:38.236Z,100.00
2023-01-12T17:30:12.177Z,100.00
2023-01-12T17:31:45.633Z,100.00
2023-01-12T17:33:18.660Z,100.00
2023-01-12T17:34:51.610Z,100.00
2023-01-12T17:36:24.806Z,100.00
2023-01-12T17:37:58.507Z,100.00
2023-01-12T17:39:31.746Z,100.00
2023-01-12T17:41:33.316Z,100.00
2023-01-12T17:43:08.204Z,100.00
2023-01-12T17:44:43.270Z,100.00
2023-01-12T17:46:19.760Z,100.00
2023-01-12T17:47:53.216Z,100.00
2023-01-12T17:49:26.438Z,100.00
2023-01-12T17:51:00.938Z,100.00
2023-01-12T17:52:34.173Z,100.00
2023-01-12T17:54:10.892Z,100.00
2023-01-12T17:55:49.107Z,100.00
2023-01-12T17:57:22.720Z,100.00
2023-01-12T17:58:56.065Z,100.00
2023-01-12T18:00:29.318Z,100.00
2023-01-12T18:02:02.451Z,100.00
2023-01-12T18:03:35.672Z,100.00
2023-01-12T18:05:09.232Z,100.00
2023-01-12T18:06:42.736Z,100.00
2023-01-12T18:08:16.223Z,100.00
2023-01-12T18:09:49.275Z,100.00
2023-01-12T18:11:22.655Z,100.00
2023-01-12T18:12:55.577Z,100.00
2023-01-12T18:14:28.766Z,100.00
2023-01-12T18:16:02.454Z,100.00
2023-01-12T18:17:35.464Z,100.00
2023-01-12T18:19:10.605Z,100.00
2023-01-12T18:20:43.591Z,100.00
2023-01-12T18:22:16.806Z,100.00
2023-01-12T18:23:51.542Z,100.00
2023-01-12T18:25:24.452Z,100.00
2023-01-12T18:26:57.436Z,100.00
2023-01-12T18:28:30.849Z,100.00
2023-01-12T18:30:05.169Z,100.00
2023-01-12T18:31:38.231Z,100.00
2023-01-12T18:33:11.543Z,100.00
2023-01-12T18:34:47.544Z,100.00
2023-01-12T18:36:23.301Z,100.00
2023-01-12T18:37:56.137Z,100.00
2023-01-12T18:39:29.240Z,100.00
2023-01-12T18:41:21.756Z,100.00
2023-01-12T18:42:55.078Z,100.00
2023-01-12T18:44:28.117Z,100.00
2023-01-12T18:46:14.843Z,100.00
2023-01-12T18:48:13.860Z,100.00
2023-01-12T18:49:50.240Z,100.00
2023-01-12T18:51:41.542Z,100.00
2023-01-12T18:53:25.455Z,100.00
2023-01-12T18:54:59.159Z,100.00
2023-01-12T18:56:32.076Z,100.00
2023-01-12T18:58:04.909Z,100.00
2023-01-12T18:59:38.321Z,100.00
2023-01-12T19:01:21.878Z,100.00
2023-01-12T19:02:55.083Z,100.00
2023-01-12T19:04:51.300Z,100.00
2023-01-12T19:06:45.198Z,100.00
2023-01-12T19:08:37.047Z,100.00
2023-01-12T19:10:10.922Z,100.00
2023-01-12T19:11:43.780Z,100.00
2023-01-12T19:13:37.450Z,100.00
2023-01-12T19:15:29.553Z,100.00
2023-01-12T19:17:21.360Z,100.00
2023-01-12T19:18:54.272Z,100.00
2023-01-12T19:20:30.195Z,100.00
2023-01-12T19:22:22.487Z,100.00
2023-01-12T19:24:13.715Z,100.00
2023-01-12T19:26:12.986Z,100.00
2023-01-12T19:28:08.154Z,100.00
2023-01-12T19:29:42.390Z,100.00
2023-01-12T19:31:17.193Z,100.00
2023-01-12T19:32:50.346Z,100.00
2023-01-12T19:34:25.203Z,100.00
2023-01-12T19:35:58.001Z,100.00
2023-01-12T19:37:32.187Z,100.00
2023-01-12T19:39:09.787Z,100.00
2023-01-12T19:40:46.309Z,100.00
2023-01-12T19:42:37.636Z,100.00
2023-01-12T19:44:11.500Z,100.00
2023-01-12T19:45:46.635Z,100.00
2023-01-12T19:47:19.614Z,100.00
2023-01-12T19:48:52.477Z,100.00
2023-01-12T19:50:25.431Z,100.00
2023-01-12T19:51:58.476Z,100.00
2023-01-12T19:53:31.383Z,100.00
2023-01-12T19:55:06.169Z,100.00
2023-01-12T19:56:40.591Z,100.00
2023-01-12T19:58:14.002Z,100.00
2023-01-12T19:59:48.732Z,100.00
2023-01-12T20:01:23.407Z,100.00
2023-01-12T20:02:56.602Z,100.00
2023-01-12T20:04:30.096Z,100.00
2023-01-12T20:06:07.477Z,100.00
2023-01-12T20:07:40.343Z,100.00
2023-01-12T20:09:13.310Z,100.00
2023-01-12T20:10:46.809Z,100.00
2023-01-12T20:12:22.380Z,100.00
2023-01-12T20:13:55.149Z,100.00
2023-01-12T20:15:28.202Z,100.00
2023-01-12T20:17:01.039Z,100.00
2023-01-12T20:18:34.168Z,100.00
2023-01-12T20:20:08.720Z,100.00
2023-01-12T20:21:41.639Z,100.00
2023-01-12T20:23:20.254Z,100.00
2023-01-12T20:24:53.479Z,100.00
2023-01-12T20:26:27.032Z,100.00
2023-01-12T20:28:02.755Z,100.00
2023-01-12T20:29:36.411Z,100.00
2023-01-12T20:31:13.827Z,100.00
2023-01-12T20:32:53.574Z,100.00
2023-01-12T20:34:27.224Z,100.00
2023-01-12T20:36:01.574Z,100.00
2023-01-12T20:37:35.390Z,100.00
2023-01-12T20:39:11.796Z,100.00
2023-01-12T20:40:45.902Z,100.00